Bango, Nevada Weather observations

Data are for 10 minute period ending at time listed.
 Day   Time    Ave.   Ave.  Ave.  Vector   Max.   Stn.    Total    Solar   Ave.  
  of    of     Air    Rel.  Wind   Wind    Wind   Baro.  Precip.   Rad.    Soil  
Year   Day     Temp.  Hum.  Speed  Dir.    Gust   Pres.                    Temp. 
2015   (PST)    F      %     mph   deg.    mph     mb.     in.     W/m2     F    
--------------------------------------------------------------------------------- 
 108    0:30   51.9    14    3.0   217      5.1   876.2    0.00       0    18.8  
 108    0:40   51.8    14    3.6   247      5.1   876.1    0.00       0    18.7  
 108    0:50   52.4    14    3.6   285      6.0   876.1    0.00       0    18.6  
 108    1:00   52.5    14    2.5   268      5.1   876.1    0.00       0    18.5  
 108    1:10   51.1    15    4.2   230      7.8   876.0    0.00       0    18.4  
 108    1:20   48.1    17    5.8   215      7.8   876.0    0.00       0    18.3  
 108    1:30   47.8    17    5.4   214      7.8   876.0    0.00       0    18.2  
 108    1:40   46.3    18    7.3   218      9.6   876.0    0.00       0    18.2  
 108    1:50   47.2    18    8.0   226      9.6   876.0    0.00       0    18.1  
 108    2:00   45.0    19    7.5   236      9.6   876.0    0.00       0    18.0  
 108    2:10   45.0    19    9.3   233     10.5   876.0    0.00       0    17.9  
 108    2:20   45.4    18    8.8   238     10.5   876.1    0.00       0    17.8  
 108    2:30   44.7    19    7.6   233     10.5   876.2    0.00       0    17.7  
 108    2:40   45.3    18    6.6   224      8.7   876.1    0.00       0    17.6  
 108    2:50   45.5    18    7.8   228     10.5   876.1    0.00       0    17.5  
 108    3:00   46.0    18    7.3   246      9.6   876.1    0.00       0    17.4  
 108    3:10   46.1    18    4.6   264      7.8   876.2    0.00       0    17.3  
 108    3:20   45.6    18    2.3   253      4.2   876.3    0.00       0    17.2  
 108    3:30   45.0    18    1.9   230      3.3   876.3    0.00       0    17.2  
 108    3:40   43.0    20    2.8   186      4.2   876.3    0.00       0    17.1  
 108    3:50   43.4    20    3.9   229      6.0   876.3    0.00       0    17.0  
 108    4:00   41.1    21    5.4   230      8.7   876.4    0.00       0    16.9  
 108    4:10   41.2    20    7.8   224     11.4   876.4    0.00       0    16.8  
 108    4:20   44.3    19    9.8   236     13.2   876.4    0.00       0    16.8  
 108    4:30   44.5    20    6.7   282     11.4   876.6    0.00       0    16.7  
 108    4:40   45.8    19    4.6   358      7.8   876.8    0.00       0    16.6  
 108    4:50   42.7    20    5.3   347      7.8   876.9    0.00       0    16.5  
 108    5:00   44.3    20    5.2   344      7.8   876.9    0.00       0    16.4  
 108    5:10   44.9    21    4.5   294      8.7   876.9    0.00       2    16.3  
 108    5:20   45.4    20    5.6   278      8.7   877.0    0.00       5    16.2  
 108    5:30   46.1    19    4.2   221      8.7   877.0    0.00      15    16.2  
 108    5:40   43.2    22    4.5   221      6.9   877.0    0.00      35    16.1  
 108    5:50   43.7    22    6.2   208      7.8   877.0    0.00      66    16.0  
 108    6:00   45.3    21    5.4   192      7.8   877.0    0.00     104    15.9  
 108    6:10   47.4    20    4.1   178      6.9   877.1    0.00     139    15.8  
 108    6:20   48.9    20    3.7   129      6.0   877.2    0.00     171    15.8  
 108    6:30   51.2    21    1.9   168      5.1   877.2    0.00     206    15.7  
 108    6:40   52.5    22    2.9   136      5.1   877.3    0.00     241    15.6  
 108    6:50   53.4    23    1.8   113      3.3   877.3    0.00     278    15.5  
 108    7:00   54.5    21    3.2    46      5.1   877.4    0.00     315    15.5  
 108    7:10   54.6    19    4.7   342      7.8   877.3    0.00     352    15.4  
 108    7:20   55.8    19    7.0   333      9.6   877.2    0.00     389    15.3  
 108    7:30   57.6    18    8.2   321     13.2   877.1    0.00     425    15.3  
 108    7:40   59.1    17    9.9   318     13.2   877.1    0.00     462    15.2  
 108    7:50   59.8    16   11.1   328     14.9   877.1    0.00     497    15.1  
 108    8:00   60.4    15   10.1   338     13.2   877.1    0.00     532    15.1  
 108    8:10   61.0    14    8.8   344     12.3   877.1    0.00     567    15.0  
 108    8:20   61.7    14    8.6   339     11.4   877.1    0.00     601    15.0  
 108    8:30   61.9    13    7.7   345     11.4   877.2    0.00     634    14.9  
 108    8:40   62.7    12    6.9   355     11.4   877.3    0.00     667    14.9  
 108    8:50   63.1    12    7.0   347     11.4   877.4    0.00     698    14.9  
 108    9:00   63.5    12    7.2    14     10.5   877.6    0.00     727    14.8  
 108    9:10   63.7    12    6.7    14     10.5   877.7    0.00     755    14.9  
 108    9:20   64.1    12    7.4    19     13.2   877.7    0.00     782    14.8  
 108    9:30   64.6    12    6.8    18     10.5   877.7    0.00     808    14.8  
 108    9:40   65.1    12    6.9     9     10.5   877.7    0.00     833    14.8  
 108    9:50   66.1    12    7.1     1     13.2   877.7    0.00     856    14.9  
 108   10:00   66.8    12    9.7   351     18.5   877.6    0.00     876    14.9  
 108   10:10   67.2    12    8.4    17     16.7   877.6    0.00     895    14.9  
 108   10:20   67.4    14   13.4    30     20.3   877.6    0.00     911    15.0  
 108   10:30   67.9    14   13.4    27     19.4   877.6    0.00     926    15.0  
 108   10:40   68.3    14   13.2    30     18.5   877.5    0.00     941    15.1  
 108   10:50   68.5    13   14.3    29     20.3   877.4    0.00     954    15.2  
 108   11:00   68.9    12   11.6    23     19.4   877.3    0.00     966    15.3  
 108   11:10   68.7    11   11.7    46     18.5   877.2    0.00     975    15.4  
 108   11:20   68.9    11   11.9    36     17.6   877.1    0.00     983    15.5  
 108   11:30   69.2    11   10.4    32     18.5   877.0    0.00     989    15.6  
 108   11:40   69.8    11   10.8    29     18.5   876.9    0.00     994    15.7  
 108   11:50   69.5    12    8.8    34     18.5   876.9    0.00     995    15.9  
 108   12:00   70.5    12    8.7    40     15.8   876.7    0.00     965    16.0  
 108   12:10   70.9    13   11.5    40     16.7   876.5    0.00     992    16.2  
 108   12:20   71.3    13    9.1    44     16.7   876.5    0.00     988    16.3  
 108   12:30   71.4    13    8.8    24     14.9   876.4    0.00     982    16.5  
 108   12:40   71.7    13    8.5    45     14.9   876.2    0.00     975    16.7  
 108   12:50   72.8    13    8.4    74     14.9   876.2    0.00     966    16.8  
 108   13:00   72.4    13    8.1    72     16.7   876.1    0.00     956    17.0  
 108   13:10   73.4    13    7.3    43     17.6   876.0    0.00     948    17.2  
 108   13:20   73.2    13    9.2     5     21.2   876.0    0.00     935    17.5  
 108   13:30   73.1    13    4.5     8      9.6   875.9    0.00     921    17.6  
 108   13:40   73.8    12    9.7    46     17.6   875.8    0.00     906    17.9  
 108   13:50   73.5    12    6.3    17     12.3   875.7    0.00     889    18.0  
 108   14:00   73.6    12    8.7    28     15.8   875.5    0.00     870    18.3  
 108   14:10   74.5    12    4.8   303      7.8   875.3    0.00     850    18.5  
 108   14:20   74.4    12    7.2   334     14.1   875.2    0.00     826    18.7  
 108   14:30   74.5    12    7.1    17     14.1   875.1    0.00     801    18.9  
 108   14:40   74.6    12    8.3    57     14.9   874.9    0.00     778    19.1  
 108   14:50   74.0    12    9.7     8     17.6   874.8    0.00     761    19.3  
 108   15:00   73.8    12    7.5   298     14.9   874.7    0.00     676    19.5  
 108   15:10   74.7    12   10.3    78     18.5   874.6    0.00     788    19.7  
 108   15:20   74.5    13    8.5    56     12.3   874.6    0.00     549    19.9  
 108   15:30   73.4    13    5.8    56     11.4   874.6    0.00     249    20.1  
 108   15:40   73.5    13    7.4    45     14.1   874.5    0.00     334    20.3  
 108   15:50   73.8    13    7.9    16     13.2   874.3    0.00     495    20.5  
 108   16:00   74.4    12    8.4    47     14.9   874.3    0.00     628    20.6  
 108   16:10   75.4    12   10.9    64     16.7   874.2    0.00     580    20.8  
 108   16:20   74.5    12   11.5    62     18.5   874.1    0.00     456    21.0  
 108   16:30   74.2    12   10.2    54     14.1   874.1    0.00     374    21.1  
 108   16:40   73.4    12    9.6    45     12.3   874.1    0.00     189    21.3  
 108   16:50   73.8    12   11.8    43     18.5   874.1    0.00     373    21.5  
 108   17:00   73.7    12   11.7    41     14.9   874.0    0.00     282    21.6  
 108   17:10   72.7    12   11.3    44     14.9   874.0    0.00     112    21.7  
 108   17:20   72.2    12   11.1    53     16.7   873.9    0.00     106    21.8  
 108   17:30   71.8    13   10.7    47     14.1   873.8    0.00      51    21.9  
 108   17:40   71.6    13   10.1    40     13.2   873.8    0.00      85    22.0  
 108   17:50   71.2    13    9.6    42     13.2   873.8    0.00     115    22.1  
 108   18:00   71.1    13    9.2    43     12.3   873.8    0.00      90    22.2  
 108   18:10   70.5    13    9.8    48     14.1   873.8    0.00      42    22.2  
 108   18:20   69.7    14    9.3    46     13.2   873.8    0.00      19    22.3  
 108   18:30   68.7    14    7.9    46     11.4   873.8    0.00      11    22.4  
 108   18:40   67.8    14    7.6    42      9.6   873.8    0.00       4    22.4  
 108   18:50   66.6    15    7.5    36      9.6   873.9    0.00       1    22.4  
 108   19:00   65.1    16    7.5    30      8.7   873.9    0.00       0    22.4  
 108   19:10   63.2    17    7.3    22      8.7   874.0    0.00       0    22.4  
 108   19:20   61.0    18    8.0     2      9.6   874.0    0.00       0    22.5  
 108   19:30   61.2    18    8.8    19     10.5   874.1    0.00       0    22.4  
 108   19:40   60.3    18    7.3    10      9.6   874.1    0.00       0    22.4  
 108   19:50   60.0    19    7.6    16      9.6   874.2    0.00       0    22.4  
 108   20:00   59.0    20    6.7    11      7.8   874.2    0.00       0    22.4  
 108   20:10   58.1    20    6.6    11      7.8   874.3    0.00       0    22.3  
 108   20:20   58.3    20    6.9    25      8.7   874.4    0.00       0    22.3  
 108   20:30   58.2    21    8.1    22      9.6   874.5    0.00       0    22.2  
 108   20:40   58.5    21    9.7    18     13.2   874.6    0.00       0    22.2  
 108   20:50   58.7    21    9.2    12     12.3   874.7    0.00       0    22.1  
 108   21:00   58.4    21    9.3     1     11.4   874.7    0.00       0    22.0  
 108   21:10   58.0    22    9.2   350     11.4   874.7    0.00       0    22.0  
 108   21:20   58.0    22   10.0   354     12.3   874.8    0.00       0    21.9  
 108   21:30   57.5    23    7.9    30     12.3   874.8    0.00       0    21.8  
 108   21:40   55.4    24    5.7    46      7.8   875.0    0.00       0    21.7  
 108   21:50   54.7    25    7.8    23      9.6   875.1    0.00       0    21.7  
 108   22:00   54.4    25    9.3     9     10.5   875.1    0.00       0    21.6  
 108   22:10   54.6    25    8.6     3     11.4   875.2    0.00       0    21.5  
 108   22:20   54.4    25    9.6    16     13.2   875.5    0.00       0    21.4  
 108   22:30   55.3    24    9.9    22     12.3   875.6    0.00       0    21.3  
 108   22:40   55.3    23   11.0    13     13.2   875.6    0.00       0    21.2  
 108   22:50   55.3    23   12.1    10     15.8   875.6    0.00       0    21.1  
 108   23:00   56.7    21   15.4    12     21.2   875.7    0.00       0    21.0  
 108   23:10   55.9    21   13.4    14     15.8   875.9    0.00       0    20.9  
 108   23:20   54.3    23   11.2     5     14.1   876.0    0.00       0    20.9  
 108   23:30   52.2    25   11.5   345     13.2   876.0    0.00       0    20.8  
 108   23:40   51.5    26   12.1   338     13.2   876.1    0.00       0    20.7  
 108   23:50   51.7    25   10.8   340     13.2   876.2    0.00       0    20.6  
 109    0:00   51.6    26    9.8   327     11.4   876.2    0.00       0    20.5  
 109    0:10   52.1    25    9.5   318     11.4   876.3    0.00       0    20.4  
 109    0:20   52.8    24    9.3   314     12.3   876.3    0.00       0    20.3  

Return to Garden Spring, Nevada graphs page.


Western Regional Climate Center,wrcc@dri.edu